sensor_id;sensor_type;location;lat;lon;timestamp;temperature;humidity
4518;DHT22;2271;49.464;11.070;2024-01-30T00:02:21;4.40;99.90
4518;DHT22;2271;49.464;11.070;2024-01-30T00:04:47;4.50;99.90
4518;DHT22;2271;49.464;11.070;2024-01-30T00:07:13;4.40;99.90
4518;DHT22;2271;49.464;11.070;2024-01-30T00:09:38;4.40;99.90
4518;DHT22;2271;49.464;11.070;2024-01-30T00:12:07;4.40;99.90
4518;DHT22;2271;49.464;11.070;2024-01-30T00:14:33;4.40;99.90
4518;DHT22;2271;49.464;11.070;2024-01-30T00:16:58;4.40;99.90
4518;DHT22;2271;49.464;11.070;2024-01-30T00:19:24;4.40;99.90
4518;DHT22;2271;49.464;11.070;2024-01-30T00:21:49;4.30;99.90
4518;DHT22;2271;49.464;11.070;2024-01-30T00:24:15;4.30;99.90
4518;DHT22;2271;49.464;11.070;2024-01-30T00:26:41;4.30;99.90
4518;DHT22;2271;49.464;11.070;2024-01-30T00:29:06;4.20;99.90
4518;DHT22;2271;49.464;11.070;2024-01-30T00:31:32;4.20;99.90
4518;DHT22;2271;49.464;11.070;2024-01-30T00:33:57;4.10;99.90
4518;DHT22;2271;49.464;11.070;2024-01-30T00:36:23;4.10;99.90
4518;DHT22;2271;49.464;11.070;2024-01-30T00:38:49;4.00;99.90
4518;DHT22;2271;49.464;11.070;2024-01-30T00:41:15;4.00;99.90
4518;DHT22;2271;49.464;11.070;2024-01-30T00:43:42;3.90;99.90
4518;DHT22;2271;49.464;11.070;2024-01-30T00:46:08;3.90;99.90
4518;DHT22;2271;49.464;11.070;2024-01-30T00:48:33;3.90;99.90
4518;DHT22;2271;49.464;11.070;2024-01-30T00:50:59;4.00;99.90
4518;DHT22;2271;49.464;11.070;2024-01-30T00:53:25;3.90;99.90
4518;DHT22;2271;49.464;11.070;2024-01-30T00:55:50;4.00;99.90
4518;DHT22;2271;49.464;11.070;2024-01-30T00:58:16;4.00;99.90
4518;DHT22;2271;49.464;11.070;2024-01-30T01:00:41;4.00;99.90
4518;DHT22;2271;49.464;11.070;2024-01-30T01:03:07;4.00;99.90
4518;DHT22;2271;49.464;11.070;2024-01-30T01:05:32;3.90;99.90
4518;DHT22;2271;49.464;11.070;2024-01-30T01:07:58;3.90;99.90
4518;DHT22;2271;49.464;11.070;2024-01-30T01:10:24;3.80;99.90
4518;DHT22;2271;49.464;11.070;2024-01-30T01:12:49;3.90;99.90
4518;DHT22;2271;49.464;11.070;2024-01-30T01:15:15;3.90;99.90
4518;DHT22;2271;49.464;11.070;2024-01-30T01:17:41;3.90;99.90
4518;DHT22;2271;49.464;11.070;2024-01-30T01:20:07;3.90;99.90
4518;DHT22;2271;49.464;11.070;2024-01-30T01:22:33;3.80;99.90
4518;DHT22;2271;49.464;11.070;2024-01-30T01:25:02;3.80;99.90
4518;DHT22;2271;49.464;11.070;2024-01-30T01:27:27;3.80;99.90
4518;DHT22;2271;49.464;11.070;2024-01-30T01:29:53;3.70;99.90
4518;DHT22;2271;49.464;11.070;2024-01-30T01:32:19;3.70;99.90
4518;DHT22;2271;49.464;11.070;2024-01-30T01:34:45;3.70;99.90
4518;DHT22;2271;49.464;11.070;2024-01-30T01:37:11;3.70;99.90
4518;DHT22;2271;49.464;11.070;2024-01-30T01:39:36;3.80;99.90
4518;DHT22;2271;49.464;11.070;2024-01-30T01:42:02;3.80;99.90
4518;DHT22;2271;49.464;11.070;2024-01-30T01:44:28;3.90;99.90
4518;DHT22;2271;49.464;11.070;2024-01-30T01:46:54;3.90;99.90
4518;DHT22;2271;49.464;11.070;2024-01-30T01:49:22;3.90;99.90
4518;DHT22;2271;49.464;11.070;2024-01-30T01:51:48;3.90;99.90
4518;DHT22;2271;49.464;11.070;2024-01-30T01:54:14;3.90;99.90
4518;DHT22;2271;49.464;11.070;2024-01-30T01:56:42;3.90;99.90
4518;DHT22;2271;49.464;11.070;2024-01-30T01:59:08;3.90;99.90
4518;DHT22;2271;49.464;11.070;2024-01-30T02:01:36;4.00;99.90
4518;DHT22;2271;49.464;11.070;2024-01-30T02:04:02;4.00;99.90
4518;DHT22;2271;49.464;11.070;2024-01-30T02:06:28;4.00;99.90
4518;DHT22;2271;49.464;11.070;2024-01-30T02:08:54;4.00;99.90
4518;DHT22;2271;49.464;11.070;2024-01-30T02:11:21;4.00;99.90
4518;DHT22;2271;49.464;11.070;2024-01-30T02:13:47;4.00;99.90
4518;DHT22;2271;49.464;11.070;2024-01-30T02:16:13;4.00;99.90
4518;DHT22;2271;49.464;11.070;2024-01-30T02:18:38;3.90;99.90
4518;DHT22;2271;49.464;11.070;2024-01-30T02:21:08;3.90;99.90
4518;DHT22;2271;49.464;11.070;2024-01-30T02:23:34;3.80;99.90
4518;DHT22;2271;49.464;11.070;2024-01-30T02:26:00;3.70;99.90
4518;DHT22;2271;49.464;11.070;2024-01-30T02:28:25;3.80;99.90
4518;DHT22;2271;49.464;11.070;2024-01-30T02:30:51;3.80;99.90
4518;DHT22;2271;49.464;11.070;2024-01-30T02:33:17;3.90;99.90
4518;DHT22;2271;49.464;11.070;2024-01-30T02:35:43;4.00;99.90
4518;DHT22;2271;49.464;11.070;2024-01-30T02:38:08;4.10;99.90
4518;DHT22;2271;49.464;11.070;2024-01-30T02:40:34;4.10;99.90
4518;DHT22;2271;49.464;11.070;2024-01-30T02:43:01;4.10;99.90
4518;DHT22;2271;49.464;11.070;2024-01-30T02:45:27;4.10;99.90
4518;DHT22;2271;49.464;11.070;2024-01-30T02:47:52;4.20;99.90
4518;DHT22;2271;49.464;11.070;2024-01-30T02:50:18;4.20;99.90
4518;DHT22;2271;49.464;11.070;2024-01-30T02:52:44;4.20;99.90
4518;DHT22;2271;49.464;11.070;2024-01-30T02:55:10;4.30;99.90
4518;DHT22;2271;49.464;11.070;2024-01-30T02:57:35;4.30;99.90
4518;DHT22;2271;49.464;11.070;2024-01-30T03:00:01;4.40;99.90
4518;DHT22;2271;49.464;11.070;2024-01-30T03:02:29;4.50;99.90
4518;DHT22;2271;49.464;11.070;2024-01-30T03:04:54;4.50;99.90
4518;DHT22;2271;49.464;11.070;2024-01-30T03:07:20;4.50;99.90
4518;DHT22;2271;49.464;11.070;2024-01-30T03:09:45;4.50;99.90
4518;DHT22;2271;49.464;11.070;2024-01-30T03:12:11;4.50;99.90
4518;DHT22;2271;49.464;11.070;2024-01-30T03:14:37;4.40;99.90
4518;DHT22;2271;49.464;11.070;2024-01-30T03:17:03;4.40;99.90
4518;DHT22;2271;49.464;11.070;2024-01-30T03:19:28;4.40;99.90
4518;DHT22;2271;49.464;11.070;2024-01-30T03:21:54;4.40;99.90
4518;DHT22;2271;49.464;11.070;2024-01-30T03:24:19;4.40;99.90
4518;DHT22;2271;49.464;11.070;2024-01-30T03:26:45;4.40;99.90
4518;DHT22;2271;49.464;11.070;2024-01-30T03:29:11;4.40;99.90
4518;DHT22;2271;49.464;11.070;2024-01-30T03:31:37;4.30;99.90
4518;DHT22;2271;49.464;11.070;2024-01-30T03:34:02;4.30;99.90
4518;DHT22;2271;49.464;11.070;2024-01-30T03:36:28;4.30;99.90
4518;DHT22;2271;49.464;11.070;2024-01-30T03:38:54;4.30;99.90
4518;DHT22;2271;49.464;11.070;2024-01-30T03:41:19;4.30;99.90
4518;DHT22;2271;49.464;11.070;2024-01-30T03:43:46;4.30;99.90
4518;DHT22;2271;49.464;11.070;2024-01-30T03:46:12;4.20;99.90
4518;DHT22;2271;49.464;11.070;2024-01-30T03:48:38;4.30;99.90
4518;DHT22;2271;49.464;11.070;2024-01-30T03:51:04;4.30;99.90
4518;DHT22;2271;49.464;11.070;2024-01-30T03:53:30;4.30;99.90
4518;DHT22;2271;49.464;11.070;2024-01-30T03:55:56;4.30;99.90
4518;DHT22;2271;49.464;11.070;2024-01-30T03:58:22;4.30;99.90
4518;DHT22;2271;49.464;11.070;2024-01-30T04:00:47;4.30;99.90
4518;DHT22;2271;49.464;11.070;2024-01-30T04:03:14;4.30;99.90
4518;DHT22;2271;49.464;11.070;2024-01-30T04:05:40;4.30;99.90
4518;DHT22;2271;49.464;11.070;2024-01-30T04:08:07;4.30;99.90
4518;DHT22;2271;49.464;11.070;2024-01-30T04:10:33;4.30;99.90
4518;DHT22;2271;49.464;11.070;2024-01-30T04:12:58;4.30;99.90
4518;DHT22;2271;49.464;11.070;2024-01-30T04:15:25;4.20;99.90
4518;DHT22;2271;49.464;11.070;2024-01-30T04:17:51;4.20;99.90
4518;DHT22;2271;49.464;11.070;2024-01-30T04:20:16;4.20;99.90
4518;DHT22;2271;49.464;11.070;2024-01-30T04:22:46;4.20;99.90
4518;DHT22;2271;49.464;11.070;2024-01-30T04:25:12;4.20;99.90
4518;DHT22;2271;49.464;11.070;2024-01-30T04:27:38;4.20;99.90
4518;DHT22;2271;49.464;11.070;2024-01-30T04:30:04;4.20;99.90
4518;DHT22;2271;49.464;11.070;2024-01-30T04:32:30;4.20;99.90
4518;DHT22;2271;49.464;11.070;2024-01-30T04:34:56;4.10;99.90
4518;DHT22;2271;49.464;11.070;2024-01-30T04:37:21;4.10;99.90
4518;DHT22;2271;49.464;11.070;2024-01-30T04:39:47;4.10;99.90
4518;DHT22;2271;49.464;11.070;2024-01-30T04:42:12;4.10;99.90
4518;DHT22;2271;49.464;11.070;2024-01-30T04:44:38;4.10;99.90
4518;DHT22;2271;49.464;11.070;2024-01-30T04:47:04;4.10;99.90
4518;DHT22;2271;49.464;11.070;2024-01-30T04:49:31;4.00;99.90
4518;DHT22;2271;49.464;11.070;2024-01-30T04:51:57;4.00;99.90
4518;DHT22;2271;49.464;11.070;2024-01-30T04:54:23;4.10;99.90
4518;DHT22;2271;49.464;11.070;2024-01-30T04:56:48;4.10;99.90
4518;DHT22;2271;49.464;11.070;2024-01-30T04:59:14;4.30;99.90
4518;DHT22;2271;49.464;11.070;2024-01-30T05:01:40;4.30;99.90
4518;DHT22;2271;49.464;11.070;2024-01-30T05:04:08;4.20;99.90
4518;DHT22;2271;49.464;11.070;2024-01-30T05:06:34;4.20;99.90
4518;DHT22;2271;49.464;11.070;2024-01-30T05:09:00;4.10;99.90
4518;DHT22;2271;49.464;11.070;2024-01-30T05:11:25;4.10;99.90
4518;DHT22;2271;49.464;11.070;2024-01-30T05:13:51;4.20;99.90
4518;DHT22;2271;49.464;11.070;2024-01-30T05:16:16;4.10;99.90
4518;DHT22;2271;49.464;11.070;2024-01-30T05:18:43;4.10;99.90
4518;DHT22;2271;49.464;11.070;2024-01-30T05:21:09;4.10;99.90
4518;DHT22;2271;49.464;11.070;2024-01-30T05:23:35;4.10;99.90
4518;DHT22;2271;49.464;11.070;2024-01-30T05:26:01;4.10;99.90
4518;DHT22;2271;49.464;11.070;2024-01-30T05:28:29;4.10;99.90
4518;DHT22;2271;49.464;11.070;2024-01-30T05:30:55;4.00;99.90
4518;DHT22;2271;49.464;11.070;2024-01-30T05:33:21;3.90;99.90
4518;DHT22;2271;49.464;11.070;2024-01-30T05:35:46;3.80;99.90
4518;DHT22;2271;49.464;11.070;2024-01-30T05:38:12;3.80;99.90
4518;DHT22;2271;49.464;11.070;2024-01-30T05:40:38;3.80;99.90
4518;DHT22;2271;49.464;11.070;2024-01-30T05:43:03;3.80;99.90
4518;DHT22;2271;49.464;11.070;2024-01-30T05:45:29;3.80;99.90
4518;DHT22;2271;49.464;11.070;2024-01-30T05:47:55;3.80;99.90
4518;DHT22;2271;49.464;11.070;2024-01-30T05:50:20;3.80;99.90
4518;DHT22;2271;49.464;11.070;2024-01-30T05:52:48;3.80;99.90
4518;DHT22;2271;49.464;11.070;2024-01-30T05:55:14;3.80;99.90
4518;DHT22;2271;49.464;11.070;2024-01-30T05:57:40;3.80;99.90
4518;DHT22;2271;49.464;11.070;2024-01-30T06:00:06;3.90;99.90
4518;DHT22;2271;49.464;11.070;2024-01-30T06:02:32;3.80;99.90
4518;DHT22;2271;49.464;11.070;2024-01-30T06:04:58;3.80;99.90
4518;DHT22;2271;49.464;11.070;2024-01-30T06:07:24;3.80;99.90
4518;DHT22;2271;49.464;11.070;2024-01-30T06:09:49;3.70;99.90
4518;DHT22;2271;49.464;11.070;2024-01-30T06:12:15;3.70;99.90
4518;DHT22;2271;49.464;11.070;2024-01-30T06:14:41;3.60;99.90
4518;DHT22;2271;49.464;11.070;2024-01-30T06:17:10;3.50;99.90
4518;DHT22;2271;49.464;11.070;2024-01-30T06:19:37;3.50;99.90
4518;DHT22;2271;49.464;11.070;2024-01-30T06:22:04;3.50;99.90
4518;DHT22;2271;49.464;11.070;2024-01-30T06:24:29;3.50;99.90
4518;DHT22;2271;49.464;11.070;2024-01-30T06:26:55;3.50;99.90
4518;DHT22;2271;49.464;11.070;2024-01-30T06:29:21;3.60;99.90
4518;DHT22;2271;49.464;11.070;2024-01-30T06:31:47;3.60;99.90
4518;DHT22;2271;49.464;11.070;2024-01-30T06:34:12;3.60;99.90
4518;DHT22;2271;49.464;11.070;2024-01-30T06:36:38;3.70;99.90
4518;DHT22;2271;49.464;11.070;2024-01-30T06:39:04;3.70;99.90
4518;DHT22;2271;49.464;11.070;2024-01-30T06:41:30;3.70;99.90
4518;DHT22;2271;49.464;11.070;2024-01-30T06:43:56;3.80;99.90
4518;DHT22;2271;49.464;11.070;2024-01-30T06:46:21;3.70;99.90
4518;DHT22;2271;49.464;11.070;2024-01-30T06:48:47;3.70;99.90
4518;DHT22;2271;49.464;11.070;2024-01-30T06:51:13;3.70;99.90
4518;DHT22;2271;49.464;11.070;2024-01-30T06:53:38;3.70;99.90
4518;DHT22;2271;49.464;11.070;2024-01-30T06:56:05;3.60;99.90
4518;DHT22;2271;49.464;11.070;2024-01-30T06:58:30;3.70;99.90
4518;DHT22;2271;49.464;11.070;2024-01-30T07:00:56;3.60;99.90
4518;DHT22;2271;49.464;11.070;2024-01-30T07:03:22;3.60;99.90
4518;DHT22;2271;49.464;11.070;2024-01-30T07:05:47;3.60;99.90
4518;DHT22;2271;49.464;11.070;2024-01-30T07:08:14;3.60;99.90
4518;DHT22;2271;49.464;11.070;2024-01-30T07:10:43;3.60;99.90
4518;DHT22;2271;49.464;11.070;2024-01-30T07:13:08;3.60;99.90
4518;DHT22;2271;49.464;11.070;2024-01-30T07:15:35;3.60;99.90
4518;DHT22;2271;49.464;11.070;2024-01-30T07:18:02;3.60;99.90
4518;DHT22;2271;49.464;11.070;2024-01-30T07:20:28;3.70;99.90
4518;DHT22;2271;49.464;11.070;2024-01-30T07:22:55;3.70;99.90
4518;DHT22;2271;49.464;11.070;2024-01-30T07:25:21;3.70;99.90
4518;DHT22;2271;49.464;11.070;2024-01-30T07:27:47;3.60;99.90
4518;DHT22;2271;49.464;11.070;2024-01-30T07:30:12;3.60;99.90
4518;DHT22;2271;49.464;11.070;2024-01-30T07:32:38;3.80;99.90
4518;DHT22;2271;49.464;11.070;2024-01-30T07:35:04;3.70;99.90
4518;DHT22;2271;49.464;11.070;2024-01-30T07:37:29;3.70;99.90
4518;DHT22;2271;49.464;11.070;2024-01-30T07:39:55;3.70;99.90
4518;DHT22;2271;49.464;11.070;2024-01-30T07:42:21;3.70;99.90
4518;DHT22;2271;49.464;11.070;2024-01-30T07:44:46;3.70;99.90
4518;DHT22;2271;49.464;11.070;2024-01-30T07:47:12;3.70;99.90
4518;DHT22;2271;49.464;11.070;2024-01-30T07:49:40;3.70;99.90
4518;DHT22;2271;49.464;11.070;2024-01-30T07:52:06;3.80;99.90
4518;DHT22;2271;49.464;11.070;2024-01-30T07:54:32;3.80;99.90
4518;DHT22;2271;49.464;11.070;2024-01-30T07:57:00;3.90;99.90
4518;DHT22;2271;49.464;11.070;2024-01-30T07:59:26;3.90;99.90
4518;DHT22;2271;49.464;11.070;2024-01-30T08:02:04;4.00;99.90
4518;DHT22;2271;49.464;11.070;2024-01-30T08:04:29;4.10;99.90
4518;DHT22;2271;49.464;11.070;2024-01-30T08:06:55;4.10;99.90
4518;DHT22;2271;49.464;11.070;2024-01-30T08:09:20;4.20;99.90
4518;DHT22;2271;49.464;11.070;2024-01-30T08:11:46;4.20;99.90
4518;DHT22;2271;49.464;11.070;2024-01-30T08:14:11;4.20;99.90
4518;DHT22;2271;49.464;11.070;2024-01-30T08:16:39;4.20;99.90
4518;DHT22;2271;49.464;11.070;2024-01-30T08:19:04;4.30;99.90
4518;DHT22;2271;49.464;11.070;2024-01-30T08:21:30;4.40;99.90
4518;DHT22;2271;49.464;11.070;2024-01-30T08:24:04;4.30;99.90
4518;DHT22;2271;49.464;11.070;2024-01-30T08:26:31;4.30;99.90
4518;DHT22;2271;49.464;11.070;2024-01-30T08:28:56;4.30;99.90
4518;DHT22;2271;49.464;11.070;2024-01-30T08:31:22;4.30;99.90
4518;DHT22;2271;49.464;11.070;2024-01-30T08:33:48;4.20;99.90
4518;DHT22;2271;49.464;11.070;2024-01-30T08:36:15;4.30;99.90
4518;DHT22;2271;49.464;11.070;2024-01-30T08:38:40;4.40;99.90
4518;DHT22;2271;49.464;11.070;2024-01-30T08:41:07;4.40;99.90
4518;DHT22;2271;49.464;11.070;2024-01-30T08:43:33;4.50;99.90
4518;DHT22;2271;49.464;11.070;2024-01-30T08:46:02;4.50;99.90
4518;DHT22;2271;49.464;11.070;2024-01-30T08:48:27;4.60;99.90
4518;DHT22;2271;49.464;11.070;2024-01-30T08:50:53;4.50;99.90
4518;DHT22;2271;49.464;11.070;2024-01-30T08:53:19;4.50;99.90
4518;DHT22;2271;49.464;11.070;2024-01-30T08:55:45;4.40;99.90
4518;DHT22;2271;49.464;11.070;2024-01-30T08:58:11;4.40;99.90
4518;DHT22;2271;49.464;11.070;2024-01-30T09:00:36;4.40;99.90
4518;DHT22;2271;49.464;11.070;2024-01-30T09:03:03;4.50;99.90
4518;DHT22;2271;49.464;11.070;2024-01-30T09:05:29;4.50;99.90
4518;DHT22;2271;49.464;11.070;2024-01-30T09:07:54;4.50;99.90
4518;DHT22;2271;49.464;11.070;2024-01-30T09:10:20;4.50;99.90
4518;DHT22;2271;49.464;11.070;2024-01-30T09:12:46;4.60;99.90
4518;DHT22;2271;49.464;11.070;2024-01-30T09:15:12;4.60;99.90
4518;DHT22;2271;49.464;11.070;2024-01-30T09:17:38;4.60;99.90
4518;DHT22;2271;49.464;11.070;2024-01-30T09:20:04;4.70;99.90
4518;DHT22;2271;49.464;11.070;2024-01-30T09:22:30;4.80;99.90
4518;DHT22;2271;49.464;11.070;2024-01-30T09:24:55;4.90;99.90
4518;DHT22;2271;49.464;11.070;2024-01-30T09:27:21;5.00;99.90
4518;DHT22;2271;49.464;11.070;2024-01-30T09:29:46;5.10;99.90
4518;DHT22;2271;49.464;11.070;2024-01-30T09:32:12;5.10;99.90
4518;DHT22;2271;49.464;11.070;2024-01-30T09:34:37;5.10;99.90
4518;DHT22;2271;49.464;11.070;2024-01-30T09:37:04;5.10;99.90
4518;DHT22;2271;49.464;11.070;2024-01-30T09:39:30;5.20;99.90
4518;DHT22;2271;49.464;11.070;2024-01-30T09:42:34;5.20;99.90
4518;DHT22;2271;49.464;11.070;2024-01-30T09:45:04;5.40;99.90
4518;DHT22;2271;49.464;11.070;2024-01-30T09:47:41;5.50;99.90
4518;DHT22;2271;49.464;11.070;2024-01-30T09:50:14;5.50;99.90
4518;DHT22;2271;49.464;11.070;2024-01-30T09:52:40;5.60;99.90
4518;DHT22;2271;49.464;11.070;2024-01-30T09:55:07;5.70;99.90
4518;DHT22;2271;49.464;11.070;2024-01-30T09:57:34;5.70;99.90
4518;DHT22;2271;49.464;11.070;2024-01-30T10:00:01;5.80;99.90
4518;DHT22;2271;49.464;11.070;2024-01-30T10:02:27;5.80;99.90
4518;DHT22;2271;49.464;11.070;2024-01-30T10:04:52;5.80;99.90
4518;DHT22;2271;49.464;11.070;2024-01-30T10:07:18;5.80;99.90
4518;DHT22;2271;49.464;11.070;2024-01-30T10:09:45;5.90;99.90
4518;DHT22;2271;49.464;11.070;2024-01-30T10:12:11;6.00;99.90
4518;DHT22;2271;49.464;11.070;2024-01-30T10:14:40;6.00;99.90
4518;DHT22;2271;49.464;11.070;2024-01-30T10:17:11;6.10;99.90
4518;DHT22;2271;49.464;11.070;2024-01-30T10:19:41;6.20;99.90
4518;DHT22;2271;49.464;11.070;2024-01-30T10:22:07;6.20;99.90
4518;DHT22;2271;49.464;11.070;2024-01-30T10:24:36;6.20;99.90
4518;DHT22;2271;49.464;11.070;2024-01-30T10:27:02;6.30;99.90
4518;DHT22;2271;49.464;11.070;2024-01-30T10:29:28;6.30;99.90
4518;DHT22;2271;49.464;11.070;2024-01-30T10:31:58;6.40;99.90
4518;DHT22;2271;49.464;11.070;2024-01-30T10:34:24;6.40;99.90
4518;DHT22;2271;49.464;11.070;2024-01-30T10:36:50;6.50;99.90
4518;DHT22;2271;49.464;11.070;2024-01-30T10:39:17;6.50;99.90
4518;DHT22;2271;49.464;11.070;2024-01-30T10:41:44;6.60;99.90
4518;DHT22;2271;49.464;11.070;2024-01-30T10:44:18;6.60;99.90
4518;DHT22;2271;49.464;11.070;2024-01-30T10:46:51;6.70;99.90
4518;DHT22;2271;49.464;11.070;2024-01-30T10:49:19;6.70;99.90
4518;DHT22;2271;49.464;11.070;2024-01-30T10:51:47;6.70;99.90
4518;DHT22;2271;49.464;11.070;2024-01-30T10:54:15;6.80;99.90
4518;DHT22;2271;49.464;11.070;2024-01-30T10:56:43;6.90;99.90
4518;DHT22;2271;49.464;11.070;2024-01-30T10:59:09;6.90;99.90
4518;DHT22;2271;49.464;11.070;2024-01-30T11:01:35;7.00;99.90
4518;DHT22;2271;49.464;11.070;2024-01-30T11:04:01;7.00;99.90
4518;DHT22;2271;49.464;11.070;2024-01-30T11:06:27;7.10;99.90
4518;DHT22;2271;49.464;11.070;2024-01-30T11:09:02;7.10;99.90
4518;DHT22;2271;49.464;11.070;2024-01-30T11:11:59;7.20;99.90
4518;DHT22;2271;49.464;11.070;2024-01-30T11:14:30;7.30;99.90
4518;DHT22;2271;49.464;11.070;2024-01-30T11:16:59;7.20;99.90
4518;DHT22;2271;49.464;11.070;2024-01-30T11:19:30;7.30;99.90
4518;DHT22;2271;49.464;11.070;2024-01-30T11:21:56;7.40;99.90
4518;DHT22;2271;49.464;11.070;2024-01-30T11:24:23;7.40;99.90
4518;DHT22;2271;49.464;11.070;2024-01-30T11:26:56;7.40;99.90
4518;DHT22;2271;49.464;11.070;2024-01-30T11:29:29;7.50;99.90
4518;DHT22;2271;49.464;11.070;2024-01-30T11:31:56;7.50;99.90
4518;DHT22;2271;49.464;11.070;2024-01-30T11:34:22;7.50;99.90
4518;DHT22;2271;49.464;11.070;2024-01-30T11:36:52;7.50;99.90
4518;DHT22;2271;49.464;11.070;2024-01-30T11:39:24;7.60;99.90
4518;DHT22;2271;49.464;11.070;2024-01-30T11:41:52;7.60;99.90
4518;DHT22;2271;49.464;11.070;2024-01-30T11:44:22;7.60;99.90
4518;DHT22;2271;49.464;11.070;2024-01-30T11:46:49;7.60;99.90
4518;DHT22;2271;49.464;11.070;2024-01-30T11:49:15;7.60;99.90
4518;DHT22;2271;49.464;11.070;2024-01-30T11:51:41;7.70;99.90
4518;DHT22;2271;49.464;11.070;2024-01-30T11:54:07;7.70;99.90
4518;DHT22;2271;49.464;11.070;2024-01-30T11:56:33;7.70;99.90
4518;DHT22;2271;49.464;11.070;2024-01-30T11:58:59;7.70;99.90
4518;DHT22;2271;49.464;11.070;2024-01-30T12:01:26;7.80;99.90
4518;DHT22;2271;49.464;11.070;2024-01-30T12:03:52;7.80;99.90
4518;DHT22;2271;49.464;11.070;2024-01-30T12:06:18;7.90;99.90
4518;DHT22;2271;49.464;11.070;2024-01-30T12:09:00;7.90;99.90
4518;DHT22;2271;49.464;11.070;2024-01-30T12:11:27;7.90;99.90
4518;DHT22;2271;49.464;11.070;2024-01-30T12:13:53;7.90;99.90
4518;DHT22;2271;49.464;11.070;2024-01-30T12:16:20;8.00;99.90
4518;DHT22;2271;49.464;11.070;2024-01-30T12:18:46;8.00;99.90
4518;DHT22;2271;49.464;11.070;2024-01-30T12:21:11;8.10;99.90
4518;DHT22;2271;49.464;11.070;2024-01-30T12:23:37;8.10;99.90
4518;DHT22;2271;49.464;11.070;2024-01-30T12:26:03;8.10;99.90
4518;DHT22;2271;49.464;11.070;2024-01-30T12:28:32;8.20;99.90
4518;DHT22;2271;49.464;11.070;2024-01-30T12:31:02;8.30;99.90
4518;DHT22;2271;49.464;11.070;2024-01-30T12:33:29;8.30;99.90
4518;DHT22;2271;49.464;11.070;2024-01-30T12:35:54;8.30;99.90
4518;DHT22;2271;49.464;11.070;2024-01-30T12:38:20;8.40;99.90
4518;DHT22;2271;49.464;11.070;2024-01-30T12:40:46;8.40;99.90
4518;DHT22;2271;49.464;11.070;2024-01-30T12:43:13;8.40;99.90
4518;DHT22;2271;49.464;11.070;2024-01-30T12:45:40;8.40;99.90
4518;DHT22;2271;49.464;11.070;2024-01-30T12:48:06;8.40;99.90
4518;DHT22;2271;49.464;11.070;2024-01-30T12:50:32;8.50;99.90
4518;DHT22;2271;49.464;11.070;2024-01-30T12:52:58;8.50;99.90
4518;DHT22;2271;49.464;11.070;2024-01-30T12:55:24;8.50;99.90
4518;DHT22;2271;49.464;11.070;2024-01-30T12:57:50;8.50;99.90
4518;DHT22;2271;49.464;11.070;2024-01-30T13:00:16;8.60;99.90
4518;DHT22;2271;49.464;11.070;2024-01-30T13:02:42;8.60;99.90
4518;DHT22;2271;49.464;11.070;2024-01-30T13:05:10;8.70;99.90
4518;DHT22;2271;49.464;11.070;2024-01-30T13:07:35;8.70;99.90
4518;DHT22;2271;49.464;11.070;2024-01-30T13:10:02;8.70;99.90
4518;DHT22;2271;49.464;11.070;2024-01-30T13:12:29;8.70;99.90
4518;DHT22;2271;49.464;11.070;2024-01-30T13:14:55;8.80;99.90
4518;DHT22;2271;49.464;11.070;2024-01-30T13:17:21;8.80;99.90
4518;DHT22;2271;49.464;11.070;2024-01-30T13:19:46;8.80;99.90
4518;DHT22;2271;49.464;11.070;2024-01-30T13:22:14;8.80;99.90
4518;DHT22;2271;49.464;11.070;2024-01-30T13:24:40;8.90;99.90
4518;DHT22;2271;49.464;11.070;2024-01-30T13:27:06;8.90;99.90
4518;DHT22;2271;49.464;11.070;2024-01-30T13:29:32;9.00;99.90
4518;DHT22;2271;49.464;11.070;2024-01-30T13:31:58;9.00;99.90
4518;DHT22;2271;49.464;11.070;2024-01-30T13:34:23;9.00;99.90
4518;DHT22;2271;49.464;11.070;2024-01-30T13:36:50;9.00;99.90
4518;DHT22;2271;49.464;11.070;2024-01-30T13:39:16;9.00;99.90
4518;DHT22;2271;49.464;11.070;2024-01-30T13:41:42;9.10;99.90
4518;DHT22;2271;49.464;11.070;2024-01-30T13:44:08;9.10;99.90
4518;DHT22;2271;49.464;11.070;2024-01-30T13:46:34;9.10;99.90
4518;DHT22;2271;49.464;11.070;2024-01-30T13:49:00;9.10;99.90
4518;DHT22;2271;49.464;11.070;2024-01-30T13:51:26;9.10;99.90
4518;DHT22;2271;49.464;11.070;2024-01-30T13:53:51;9.10;99.90
4518;DHT22;2271;49.464;11.070;2024-01-30T13:56:17;9.10;99.90
4518;DHT22;2271;49.464;11.070;2024-01-30T13:58:43;9.10;99.90
4518;DHT22;2271;49.464;11.070;2024-01-30T14:01:09;9.10;99.90
4518;DHT22;2271;49.464;11.070;2024-01-30T14:03:35;9.10;99.90
4518;DHT22;2271;49.464;11.070;2024-01-30T14:06:01;9.10;99.90
4518;DHT22;2271;49.464;11.070;2024-01-30T14:08:26;9.10;99.90
4518;DHT22;2271;49.464;11.070;2024-01-30T14:10:54;9.20;99.90
4518;DHT22;2271;49.464;11.070;2024-01-30T14:13:21;9.20;99.90
4518;DHT22;2271;49.464;11.070;2024-01-30T14:15:48;9.20;99.90
4518;DHT22;2271;49.464;11.070;2024-01-30T14:18:15;9.20;99.90
4518;DHT22;2271;49.464;11.070;2024-01-30T14:20:41;9.20;99.90
4518;DHT22;2271;49.464;11.070;2024-01-30T14:23:07;9.20;99.90
4518;DHT22;2271;49.464;11.070;2024-01-30T14:25:32;9.20;99.90
4518;DHT22;2271;49.464;11.070;2024-01-30T14:27:58;9.20;99.90
4518;DHT22;2271;49.464;11.070;2024-01-30T14:30:24;9.20;99.90
4518;DHT22;2271;49.464;11.070;2024-01-30T14:32:49;9.20;99.90
4518;DHT22;2271;49.464;11.070;2024-01-30T14:35:15;9.10;99.90
4518;DHT22;2271;49.464;11.070;2024-01-30T14:37:41;9.10;99.90
4518;DHT22;2271;49.464;11.070;2024-01-30T14:40:07;9.10;99.90
4518;DHT22;2271;49.464;11.070;2024-01-30T14:42:33;9.10;99.90
4518;DHT22;2271;49.464;11.070;2024-01-30T14:44:59;9.00;99.90
4518;DHT22;2271;49.464;11.070;2024-01-30T14:47:25;9.10;99.90
4518;DHT22;2271;49.464;11.070;2024-01-30T14:49:51;9.00;99.90
4518;DHT22;2271;49.464;11.070;2024-01-30T14:52:18;9.00;99.90
4518;DHT22;2271;49.464;11.070;2024-01-30T14:54:44;9.00;99.90
4518;DHT22;2271;49.464;11.070;2024-01-30T14:57:10;8.90;99.90
4518;DHT22;2271;49.464;11.070;2024-01-30T14:59:36;8.90;99.90
4518;DHT22;2271;49.464;11.070;2024-01-30T15:02:02;8.90;99.90
4518;DHT22;2271;49.464;11.070;2024-01-30T15:04:27;8.90;99.90
4518;DHT22;2271;49.464;11.070;2024-01-30T15:06:53;8.90;99.90
4518;DHT22;2271;49.464;11.070;2024-01-30T15:09:19;8.90;99.90
4518;DHT22;2271;49.464;11.070;2024-01-30T15:11:47;8.90;99.90
4518;DHT22;2271;49.464;11.070;2024-01-30T15:14:14;8.80;99.90
4518;DHT22;2271;49.464;11.070;2024-01-30T15:16:40;8.80;99.90
4518;DHT22;2271;49.464;11.070;2024-01-30T15:19:06;8.90;99.90
4518;DHT22;2271;49.464;11.070;2024-01-30T15:21:32;8.90;99.90
4518;DHT22;2271;49.464;11.070;2024-01-30T15:23:57;8.90;99.90
4518;DHT22;2271;49.464;11.070;2024-01-30T15:26:23;8.90;99.90
4518;DHT22;2271;49.464;11.070;2024-01-30T15:28:49;8.90;99.90
4518;DHT22;2271;49.464;11.070;2024-01-30T15:31:15;8.90;99.90
4518;DHT22;2271;49.464;11.070;2024-01-30T15:33:40;8.80;99.90
4518;DHT22;2271;49.464;11.070;2024-01-30T15:36:08;8.80;99.90
4518;DHT22;2271;49.464;11.070;2024-01-30T15:38:34;8.80;99.90
4518;DHT22;2271;49.464;11.070;2024-01-30T15:41:00;8.80;99.90
4518;DHT22;2271;49.464;11.070;2024-01-30T15:43:26;8.80;99.90
4518;DHT22;2271;49.464;11.070;2024-01-30T15:45:52;8.80;99.90
4518;DHT22;2271;49.464;11.070;2024-01-30T15:48:21;8.80;99.90
4518;DHT22;2271;49.464;11.070;2024-01-30T15:50:47;8.80;99.90
4518;DHT22;2271;49.464;11.070;2024-01-30T15:53:12;8.70;99.90
4518;DHT22;2271;49.464;11.070;2024-01-30T15:55:38;8.70;99.90
4518;DHT22;2271;49.464;11.070;2024-01-30T15:58:04;8.70;99.90